Marine Rouge — JG5115 — position and weather

sailwx.info

Track history (hours):
 
Tides and Currents Weather Stations Pressure Air Temp Water Temp Dewpoint Dewpoint Depression Visibility Wind Speed Wind Dir Waves Ship Positions

Marine Rouge

Last reported at 2016-May-27 12:31 UTC. Time now 2016-May-27 18:09 UTC.
Position N 35°27' E 139°39'.

Length 52 m; draft 2.8 m.

Type: Passenger vessel. MMSI: 431000518.

Date/timePositionNaut miles runAvg speedWind from/ knotsBaromVisibWave heightAir tempDewpointWater temp
2016-May-27 12:31N 35°27' E 139°39'1 1.1
2016-May-27 11:33N 35°28' E 139°39'1 0.5
2016-May-27 10:33N 35°27' E 139°39'1 0.6
2016-May-27 09:33N 35°27' E 139°39'0 0.0
2016-May-27 08:33N 35°27' E 139°39'1 0.6
2016-May-27 07:33N 35°27' E 139°39'1 0.6
2016-May-27 06:33N 35°27' E 139°39'0 0.1
2016-May-27 05:34N 35°27' E 139°39'1 1.0
2016-May-27 04:33N 35°28' E 139°39'1 1.0
2016-May-27 03:34N 35°27' E 139°39'0 0.1
2016-May-27 02:33N 35°27' E 139°39'2 2.1
2016-May-27 01:34N 35°27' E 139°42'2 2.1
2016-May-27 00:33N 35°27' E 139°39'0 0.0
2016-May-26 23:33N 35°27' E 139°39'1 0.1
2016-May-26 11:33N 35°28' E 139°40'1 1.2
2016-May-26 10:34N 35°27' E 139°39'1 0.6
2016-May-26 09:33N 35°27' E 139°39'0 0.0
2016-May-26 08:33N 35°27' E 139°39'1 0.5
2016-May-26 07:34N 35°27' E 139°39'1 0.5
2016-May-26 06:33N 35°27' E 139°39'0 0.1
2016-May-26 05:33N 35°27' E 139°39'0 0.1
2016-May-26 04:33N 35°27' E 139°39'1 0.6
2016-May-26 03:33N 35°27' E 139°39'1 0.6
2016-May-26 02:33N 35°27' E 139°39'0 0.0
2016-May-26 01:33N 35°27' E 139°39'0 0.0
2016-May-25 11:32N 35°27' E 139°39'1 1.3
2016-May-25 10:33N 35°27' E 139°41'1 1.2
2016-May-25 09:33N 35°27' E 139°39'0 0.0
2016-May-25 08:33N 35°27' E 139°39'0 0.0
2016-May-25 07:33N 35°27' E 139°39'0 0.0
2016-May-25 06:33N 35°27' E 139°39'0 0.1
2016-May-25 05:33N 35°27' E 139°39'0 0.1
2016-May-25 04:33N 35°27' E 139°39'1 0.7
2016-May-25 03:33N 35°27' E 139°39'1 0.7
2016-May-25 02:33N 35°27' E 139°39'0 0.0
2016-May-25 01:33N 35°27' E 139°39'0 0.0
2016-May-25 00:33N 35°27' E 139°39'1 0.1
2016-May-24 11:34N 35°28' E 139°39'0 0.5
2016-May-24 10:34N 35°27' E 139°39'1 0.6
2016-May-24 09:34N 35°27' E 139°39'0 0.0
2016-May-24 08:34N 35°27' E 139°39'3 2.6
2016-May-24 07:34N 35°28' E 139°42'3 2.6
2016-May-24 06:33N 35°27' E 139°39'0 0.1
2016-May-24 05:34N 35°27' E 139°39'0 0.1
2016-May-24 04:33N 35°27' E 139°39'0 0.5
2016-May-24 03:34N 35°27' E 139°39'0 0.5
2016-May-24 02:34N 35°27' E 139°39'0 0.0
2016-May-24 01:34N 35°27' E 139°39'0 0.0
2016-May-23 12:31N 35°27' E 139°39'2 2.3
2016-May-23 11:33N 35°28' E 139°41'2 2.2
2016-May-23 10:34N 35°27' E 139°39'1 0.5
2016-May-23 09:33N 35°27' E 139°39'0 0.0
2016-May-23 08:33N 35°27' E 139°39'1 0.5
2016-May-23 07:33N 35°27' E 139°39'1 0.5
2016-May-23 06:33N 35°27' E 139°39'0 0.2
2016-May-23 05:34N 35°27' E 139°39'0 0.2
2016-May-23 04:33N 35°27' E 139°39'1 0.5
2016-May-23 03:34N 35°27' E 139°39'1 0.5
2016-May-23 02:34N 35°27' E 139°39'0 0.0
2016-May-23 01:33N 35°27' E 139°39'0 0.0
2016-May-23 00:33N 35°27' E 139°39'0 0.0
2016-May-22 12:33N 35°27' E 139°39'1 0.9
2016-May-22 11:34N 35°28' E 139°39'1 0.8
2016-May-22 10:34N 35°27' E 139°40'1 1.0
2016-May-22 09:34N 35°27' E 139°39'0 0.0
2016-May-22 08:34N 35°27' E 139°39'1 1.3
2016-May-22 07:34N 35°27' E 139°41'1 1.3
2016-May-22 06:34N 35°27' E 139°39'0 0.1
2016-May-22 05:34N 35°27' E 139°39'0 0.1
2016-May-22 04:33N 35°27' E 139°39'1 1.2
2016-May-22 03:34N 35°27' E 139°41'1 1.2
2016-May-22 02:34N 35°27' E 139°39'1 1.2
2016-May-22 01:34N 35°27' E 139°41'1 1.2
2016-May-22 00:34N 35°27' E 139°39'0 0.0
2016-May-21 12:34N 35°27' E 139°39'1 1.1
2016-May-21 11:33N 35°28' E 139°39'1 0.7
2016-May-21 10:33N 35°27' E 139°39'1 0.8
2016-May-21 09:33N 35°27' E 139°39'0 0.1
2016-May-21 08:33N 35°27' E 139°39'1 1.3
2016-May-21 07:33N 35°27' E 139°41'1 1.3
2016-May-21 06:33N 35°27' E 139°39'0 0.1
2016-May-21 05:33N 35°27' E 139°39'0 0.1
2016-May-21 04:33N 35°27' E 139°39'2 1.6
2016-May-21 03:33N 35°27' E 139°41'2 1.6
2016-May-21 02:33N 35°27' E 139°39'1 0.9
2016-May-21 01:33N 35°27' E 139°40'1 0.9
2016-May-21 00:33N 35°27' E 139°39'0 0.0
2016-May-20 12:33N 35°27' E 139°39'1 0.7
2016-May-20 11:34N 35°27' E 139°39'1 0.6
2016-May-20 10:33N 35°27' E 139°40'1 0.8
2016-May-20 09:33N 35°27' E 139°39'0 0.2
2016-May-20 08:34N 35°27' E 139°39'0 0.4
2016-May-20 07:33N 35°27' E 139°39'1 0.6
2016-May-20 06:33N 35°27' E 139°39'0 0.1
2016-May-20 05:33N 35°27' E 139°39'0 0.1
2016-May-20 04:33N 35°27' E 139°39'1 0.6
2016-May-20 03:34N 35°27' E 139°39'1 0.6
2016-May-20 02:33N 35°27' E 139°39'0 0.0
2016-May-20 01:33N 35°27' E 139°39'0 0.0
2016-May-19 12:33N 35°27' E 139°39'1 1.2
2016-May-19 11:34N 35°28' E 139°39'1 0.6
2016-May-19 10:33N 35°27' E 139°39'1 0.6
2016-May-19 09:33N 35°27' E 139°39'0 0.0
2016-May-19 08:33N 35°27' E 139°39'2 1.6
2016-May-19 07:33N 35°27' E 139°41'2 1.5
2016-May-19 06:34N 35°27' E 139°39'0 0.2
2016-May-19 05:34N 35°27' E 139°39'0 0.2
2016-May-19 04:33N 35°27' E 139°39'0 0.4
2016-May-19 03:34N 35°27' E 139°39'1 0.5
2016-May-19 02:33N 35°27' E 139°39'0 0.0
2016-May-19 01:33N 35°27' E 139°39'0 0.0
2016-May-18 12:33N 35°27' E 139°39'1 0.9
2016-May-18 11:34N 35°28' E 139°39'0 0.4
2016-May-18 10:34N 35°27' E 139°39'1 0.6
2016-May-18 09:34N 35°27' E 139°39'0 0.0
2016-May-18 08:34N 35°27' E 139°39'2 1.8
2016-May-18 07:34N 35°27' E 139°41'2 1.8
2016-May-18 06:34N 35°27' E 139°39'0 0.1
2016-May-18 05:34N 35°27' E 139°39'0 0.1
2016-May-18 04:34N 35°27' E 139°39'1 1.1
2016-May-18 03:34N 35°27' E 139°40'1 1.1
2016-May-18 02:34N 35°27' E 139°39'0 0.0
2016-May-18 01:34N 35°27' E 139°39'0 0.0
2016-May-18 00:34N 35°27' E 139°39'  
Track history (hours):
 
Tides and Currents Weather Stations Pressure Air Temp Water Temp Dewpoint Dewpoint Depression Visibility Wind Speed Wind Dir Waves Ship Positions

Marine Rouge

Last reported at 2016-May-27 12:31 UTC. Time now 2016-May-27 18:09 UTC.
Position N 35°27' E 139°39'.

Length 52 m; draft 2.8 m.

Type: Passenger vessel. MMSI: 431000518.

Date/timePositionNaut miles runAvg speedWind from/ knotsBaromVisibWave heightAir tempDewpointWater temp
2016-May-27 12:31N 35°27' E 139°39'1 1.1
2016-May-27 11:33N 35°28' E 139°39'1 0.5
2016-May-27 10:33N 35°27' E 139°39'1 0.6
2016-May-27 09:33N 35°27' E 139°39'0 0.0
2016-May-27 08:33N 35°27' E 139°39'1 0.6
2016-May-27 07:33N 35°27' E 139°39'1 0.6
2016-May-27 06:33N 35°27' E 139°39'0 0.1
2016-May-27 05:34N 35°27' E 139°39'1 1.0
2016-May-27 04:33N 35°28' E 139°39'1 1.0
2016-May-27 03:34N 35°27' E 139°39'0 0.1
2016-May-27 02:33N 35°27' E 139°39'2 2.1
2016-May-27 01:34N 35°27' E 139°42'2 2.1
2016-May-27 00:33N 35°27' E 139°39'0 0.0
2016-May-26 23:33N 35°27' E 139°39'1 0.1
2016-May-26 11:33N 35°28' E 139°40'1 1.2
2016-May-26 10:34N 35°27' E 139°39'1 0.6
2016-May-26 09:33N 35°27' E 139°39'0 0.0
2016-May-26 08:33N 35°27' E 139°39'1 0.5
2016-May-26 07:34N 35°27' E 139°39'1 0.5
2016-May-26 06:33N 35°27' E 139°39'0 0.1
2016-May-26 05:33N 35°27' E 139°39'0 0.1
2016-May-26 04:33N 35°27' E 139°39'1 0.6
2016-May-26 03:33N 35°27' E 139°39'1 0.6
2016-May-26 02:33N 35°27' E 139°39'0 0.0
2016-May-26 01:33N 35°27' E 139°39'0 0.0
2016-May-25 11:32N 35°27' E 139°39'1 1.3
2016-May-25 10:33N 35°27' E 139°41'1 1.2
2016-May-25 09:33N 35°27' E 139°39'0 0.0
2016-May-25 08:33N 35°27' E 139°39'0 0.0
2016-May-25 07:33N 35°27' E 139°39'0 0.0
2016-May-25 06:33N 35°27' E 139°39'0 0.1
2016-May-25 05:33N 35°27' E 139°39'0 0.1
2016-May-25 04:33N 35°27' E 139°39'1 0.7
2016-May-25 03:33N 35°27' E 139°39'1 0.7
2016-May-25 02:33N 35°27' E 139°39'0 0.0
2016-May-25 01:33N 35°27' E 139°39'0 0.0
2016-May-25 00:33N 35°27' E 139°39'1 0.1
2016-May-24 11:34N 35°28' E 139°39'0 0.5
2016-May-24 10:34N 35°27' E 139°39'1 0.6
2016-May-24 09:34N 35°27' E 139°39'0 0.0
2016-May-24 08:34N 35°27' E 139°39'3 2.6
2016-May-24 07:34N 35°28' E 139°42'3 2.6
2016-May-24 06:33N 35°27' E 139°39'0 0.1
2016-May-24 05:34N 35°27' E 139°39'0 0.1
2016-May-24 04:33N 35°27' E 139°39'0 0.5
2016-May-24 03:34N 35°27' E 139°39'0 0.5
2016-May-24 02:34N 35°27' E 139°39'0 0.0
2016-May-24 01:34N 35°27' E 139°39'0 0.0
2016-May-23 12:31N 35°27' E 139°39'2 2.3
2016-May-23 11:33N 35°28' E 139°41'2 2.2
2016-May-23 10:34N 35°27' E 139°39'1 0.5
2016-May-23 09:33N 35°27' E 139°39'0 0.0
2016-May-23 08:33N 35°27' E 139°39'1 0.5
2016-May-23 07:33N 35°27' E 139°39'1 0.5
2016-May-23 06:33N 35°27' E 139°39'0 0.2
2016-May-23 05:34N 35°27' E 139°39'0 0.2
2016-May-23 04:33N 35°27' E 139°39'1 0.5
2016-May-23 03:34N 35°27' E 139°39'1 0.5
2016-May-23 02:34N 35°27' E 139°39'0 0.0
2016-May-23 01:33N 35°27' E 139°39'0 0.0
2016-May-23 00:33N 35°27' E 139°39'0 0.0
2016-May-22 12:33N 35°27' E 139°39'1 0.9
2016-May-22 11:34N 35°28' E 139°39'1 0.8
2016-May-22 10:34N 35°27' E 139°40'1 1.0
2016-May-22 09:34N 35°27' E 139°39'0 0.0
2016-May-22 08:34N 35°27' E 139°39'1 1.3
2016-May-22 07:34N 35°27' E 139°41'1 1.3
2016-May-22 06:34N 35°27' E 139°39'0 0.1
2016-May-22 05:34N 35°27' E 139°39'0 0.1
2016-May-22 04:33N 35°27' E 139°39'1 1.2
2016-May-22 03:34N 35°27' E 139°41'1 1.2
2016-May-22 02:34N 35°27' E 139°39'1 1.2
2016-May-22 01:34N 35°27' E 139°41'1 1.2
2016-May-22 00:34N 35°27' E 139°39'0 0.0
2016-May-21 12:34N 35°27' E 139°39'1 1.1
2016-May-21 11:33N 35°28' E 139°39'1 0.7
2016-May-21 10:33N 35°27' E 139°39'1 0.8
2016-May-21 09:33N 35°27' E 139°39'0 0.1
2016-May-21 08:33N 35°27' E 139°39'1 1.3
2016-May-21 07:33N 35°27' E 139°41'1 1.3
2016-May-21 06:33N 35°27' E 139°39'0 0.1
2016-May-21 05:33N 35°27' E 139°39'0 0.1
2016-May-21 04:33N 35°27' E 139°39'2 1.6
2016-May-21 03:33N 35°27' E 139°41'2 1.6
2016-May-21 02:33N 35°27' E 139°39'1 0.9
2016-May-21 01:33N 35°27' E 139°40'1 0.9
2016-May-21 00:33N 35°27' E 139°39'0 0.0
2016-May-20 12:33N 35°27' E 139°39'1 0.7
2016-May-20 11:34N 35°27' E 139°39'1 0.6
2016-May-20 10:33N 35°27' E 139°40'1 0.8
2016-May-20 09:33N 35°27' E 139°39'0 0.2
2016-May-20 08:34N 35°27' E 139°39'0 0.4
2016-May-20 07:33N 35°27' E 139°39'1 0.6
2016-May-20 06:33N 35°27' E 139°39'0 0.1
2016-May-20 05:33N 35°27' E 139°39'0 0.1
2016-May-20 04:33N 35°27' E 139°39'1 0.6
2016-May-20 03:34N 35°27' E 139°39'1 0.6
2016-May-20 02:33N 35°27' E 139°39'0 0.0
2016-May-20 01:33N 35°27' E 139°39'0 0.0
2016-May-19 12:33N 35°27' E 139°39'1 1.2
2016-May-19 11:34N 35°28' E 139°39'1 0.6
2016-May-19 10:33N 35°27' E 139°39'1 0.6
2016-May-19 09:33N 35°27' E 139°39'0 0.0
2016-May-19 08:33N 35°27' E 139°39'2 1.6
2016-May-19 07:33N 35°27' E 139°41'2 1.5
2016-May-19 06:34N 35°27' E 139°39'0 0.2
2016-May-19 05:34N 35°27' E 139°39'0 0.2
2016-May-19 04:33N 35°27' E 139°39'0 0.4
2016-May-19 03:34N 35°27' E 139°39'1 0.5
2016-May-19 02:33N 35°27' E 139°39'0 0.0
2016-May-19 01:33N 35°27' E 139°39'0 0.0
2016-May-18 12:33N 35°27' E 139°39'1 0.9
2016-May-18 11:34N 35°28' E 139°39'0 0.4
2016-May-18 10:34N 35°27' E 139°39'1 0.6
2016-May-18 09:34N 35°27' E 139°39'0 0.0
2016-May-18 08:34N 35°27' E 139°39'2 1.8
2016-May-18 07:34N 35°27' E 139°41'2 1.8
2016-May-18 06:34N 35°27' E 139°39'0 0.1
2016-May-18 05:34N 35°27' E 139°39'0 0.1
2016-May-18 04:34N 35°27' E 139°39'1 1.1
2016-May-18 03:34N 35°27' E 139°40'1 1.1
2016-May-18 02:34N 35°27' E 139°39'0 0.0
2016-May-18 01:34N 35°27' E 139°39'0 0.0
2016-May-18 00:34N 35°27' E 139°39'  

Dump ship's entire track history